Weather observations for the past three days for
Novato / Gnoss Field
Metric (Imperial)
Date Time (pdt) Wind (kph) Vis. (km) Weather Sky Cond. Temperature (ºC) Relative Humidity Wind Chill (°C) Heat Index (°C) Pressure Precipitation (cm)
Air Dwpt 6 hour altimeter (cm) sea level (mb) 1 hr 3 hr 6 hr
Max. Min.
05 05:55 Calm 14.48 Overcast OVC003 11 11 100% 76.07 0.0
05 05:35 Calm 16.09 Overcast OVC003 11 11 100% 76.07 0.0
05 05:15 Calm 16.09 Overcast OVC003 11 11 100% 76.05 0.0
05 04:55 Calm 14.48 Mostly Cloudy BKN003 11 11 100% 76.07 0.0
05 04:35 Calm 16.09 Partly Cloudy SCT003 SCT044 12 12 100% 76.07 0.0
05 04:15 Calm 16.09 Mostly Cloudy BKN003 12 12 100% 76.07 0.0
05 03:55 Calm 16.09 Mostly Cloudy BKN003 12 11 94% 76.07 0.0
05 03:35 Calm 16.09 Partly Cloudy SCT003 12 11 94% 76.07 0.0
05 03:15 Calm 16.09 A Few Clouds FEW004 12 12 100% 76.07 0.0
05 02:55 Calm 16.09 Fair CLR 12 12 100% 76.07 0.0
05 02:35 Calm 16.09 Fair CLR 12 12 100% 76.07 0.0
05 02:15 Calm 16.09 Fair CLR 13 13 100% 76.1 0.0
05 01:55 E 7 16.09 Fair CLR 13 13 100% 76.1 0.0
05 01:35 Calm 16.09 Fair CLR 13 13 100% 76.1 0.0
05 01:15 E 7 16.09 Fair CLR 14 13 94% 76.07 0.0
05 00:55 E 7 16.09 Fair CLR 14 13 94% 76.07 0.0
05 00:35 E 7 16.09 Fair CLR 14 13 94% 76.07 0.0
05 00:15 SE 6 16.09 Fair CLR 14 13 94% 76.07 0.0
04 23:55 E 6 16.09 Fair CLR 15 14 94% 76.07 0.0
04 23:35 Vrbl 7 16.09 Fair CLR 15 13 88% 76.07 0.0
04 23:15 SE 7 16.09 Fair CLR 15 13 88% 76.07 0.0
04 22:55 Calm 16.09 Fair CLR 16 13 83% 76.07 0.0
04 22:35 Calm 16.09 Fair CLR 16 13 83% 76.07 0.0
04 22:15 SE 11 16.09 Fair CLR 16 13 83% 76.07 0.0
04 21:55 E 7 16.09 Fair CLR 16 13 83% 76.1 0.0
04 21:35 Calm 16.09 Fair CLR 16 13 83% 76.07 0.0
04 21:15 E 11 16.09 Fair CLR 17 12 73% 76.07 0.0
04 20:55 E 13 16.09 Fair CLR 17 12 73% 76.07 0.0
04 20:35 E 6 16.09 Fair CLR 17 12 73% 76.07 0.0
04 20:15 Vrbl 6 G 19 16.09 Fair CLR 17 12 73% 76.05 0.0
04 19:55 SE 13 16.09 Fair CLR 17 12 73% 76.05 0.0
04 19:35 Vrbl 6 16.09 Fair CLR 18 11 64% 76.05 0.0
04 19:15 E 9 G 26 16.09 Fair CLR 18 11 64% 76.05 0.0
04 18:55 Vrbl 7 16.09 Fair CLR 19 11 60% 76.05 0.0
04 18:35 Vrbl 7 16.09 Fair CLR 20 11 56% 76.05 0.0
04 18:15 W 17 G 39 16.09 Fair CLR 20 11 56% 76.05 0.0
04 17:55 W 19 G 31 16.09 Fair CLR 21 11 53% 76.02 0.0
04 17:35 W 28 G 37 16.09 Fair CLR 22 10 47% 76.02 0.0
04 17:15 W 30 16.09 Fair CLR 22 11 50% 76 0.0
04 16:55 W 24 G 35 16.09 Fair CLR 23 11 47% 76.02 0.0
04 16:35 W 20 G 35 16.09 Fair CLR 23 11 47% 76 0.0
04 16:15 W 19 G 30 16.09 Fair CLR 24 11 44% 25 76 0.0
04 15:35 W 22 16.09 Fair CLR 24 9 39% 25 76.02 0.0
04 15:15 W 13 G 24 16.09 Fair CLR 25 9 36% 26 76.02 0.0
04 14:55 NW 15 12.87 Fair CLR 25 9 36% 26 76.02 0.0
04 14:35 NW 17 16.09 Fair CLR 25 10 39% 26 76.02 0.0
04 14:15 Vrbl 7 9.66 Fair with Haze CLR 25 8 34% 26 76.02 0.0
04 13:55 Vrbl 9 G 26 12.87 Fair CLR 25 8 34% 26 76.02 0.0
04 13:35 Vrbl 7 G 22 14.48 Fair CLR 24 9 39% 25 76.02 0.0
04 13:15 NW 13 16.09 Partly Cloudy SCT050 23 9 41% 76.05 0.0
04 12:55 NW 15 16.09 Mostly Cloudy BKN049 22 10 47% 76.05 0.0
04 12:35 NW 15 16.09 Partly Cloudy SCT049 23 10 44% 76.05 0.0
04 12:15 N 13 16.09 A Few Clouds FEW040 FEW047 23 11 47% 76.07 0.0
04 11:55 W 13 16.09 Partly Cloudy SCT036 SCT042 22 11 50% 76.07 0.0
04 11:35 NW 19 16.09 Partly Cloudy FEW033 SCT040 22 13 57% 76.07 0.0
04 11:15 N 9 16.09 Partly Cloudy FEW024 SCT033 21 14 64% 76.07 0.0
04 10:55 NE 7 16.09 A Few Clouds FEW024 FEW032 20 14 69% 76.07 0.0
04 10:35 N 9 16.09 A Few Clouds FEW018 19 14 73% 76.1 0.0
04 10:15 NW 11 16.09 A Few Clouds FEW019 19 14 73% 76.07 0.0
04 09:55 NW 11 16.09 A Few Clouds FEW021 18 14 78% 76.07 0.0
04 09:35 N 11 16.09 A Few Clouds FEW009 FEW013 17 15 88% 76.05 0.0
04 09:15 Calm 16.09 A Few Clouds FEW009 FEW013 16 15 94% 76.07 0.0
04 08:55 NE 7 16.09 Fair CLR 16 14 88% 76.07 0.0
04 08:35 Calm 16.09 A Few Clouds FEW006 15 14 94% 76.05 0.0
04 08:15 Calm 16.09 Fair CLR 14 13 94% 76.05 0.0
04 07:55 N 7 16.09 Fair CLR 13 13 100% 76.02 0.0
04 07:35 Calm 14.48 Fair CLR 12 12 100% 76.02 0.0
04 07:15 Calm 11.27 Fair CLR 11 11 100% 76 0.0
04 06:55 Calm 14.48 Fair CLR 11 11 100% 76 0.0
04 06:35 Calm 0.80 Fog VV005 11 11 100% 75.97 0.0
04 06:15 Calm 11.27 Fair CLR 11 11 100% 75.97 0.0
04 05:55 Calm 6.44 Fog/Mist CLR 11 11 100% 75.95 0.0
04 05:35 Calm 6.44 Fog/Mist FEW003 12 12 100% 75.95 0.0
04 05:15 Calm 11.27 A Few Clouds FEW003 12 12 100% 75.95 0.0
04 04:55 Calm 14.48 Fair CLR 12 12 100% 75.95 0.0
04 04:35 NE 7 16.09 Fair CLR 13 13 100% 75.92 0.0
04 04:15 Calm 12.87 Fair CLR 12 12 100% 75.92 0.0
04 03:55 Calm 16.09 A Few Clouds FEW034 12 12 100% 75.92 0.0
04 03:35 Calm 12.87 Partly Cloudy SCT037 13 13 100% 75.92 0.0
04 03:15 SE 6 16.09 Mostly Cloudy BKN038 13 13 100% 75.92 0.0
04 02:55 SW 6 16.09 A Few Clouds FEW038 13 12 94% 75.92 0.0
04 02:35 Calm 16.09 Fair CLR 13 13 100% 75.92 0.0
04 02:15 Calm 16.09 Fair CLR 14 14 100% 75.92 0.0
04 01:55 Calm 16.09 Fair CLR 14 14 100% 75.9 0.0
04 01:35 N 11 16.09 Fair CLR 15 14 94% 75.92 0.0
04 01:15 Calm 16.09 Fair CLR 15 14 94% 75.92 0.0
04 00:55 Calm 16.09 Fair CLR 15 14 94% 75.9 0.0
04 00:35 Calm 16.09 Fair CLR 15 15 100% 75.9 0.0
04 00:15 NE 9 16.09 Fair CLR 15 15 100% 75.9 0.0
03 23:55 Calm 16.09 A Few Clouds FEW020 16 14 88% 75.9 0.0
03 23:35 Vrbl 9 16.09 Mostly Cloudy FEW020 SCT060 BKN075 16 15 94% 75.9 0.0
03 23:15 Calm 16.09 Overcast OVC060 17 15 88% 75.9 0.0
03 22:55 Calm 16.09 Overcast OVC065 17 15 88% 75.9 0.0
03 22:35 Calm 16.09 Overcast OVC060 17 16 94% 75.9 0.0
03 22:15 Calm 16.09 Overcast FEW045 OVC060 17 15 88% 75.9 0.0
03 21:55 Calm 16.09 Overcast FEW045 OVC060 17 16 94% 75.92 0.0
03 21:35 Calm 16.09 Overcast OVC060 17 16 94% 75.92 0.0
03 21:15 S 7 16.09 Overcast OVC055 17 16 94% 75.92 0.0
03 20:55 Calm 16.09 Overcast SCT016 OVC050 17 16 94% 75.9 0.0
03 20:35 NW 9 16.09 Overcast SCT016 OVC045 17 16 94% 75.9 0.0
03 20:15 NW 6 16.09 Overcast SCT038 BKN045 OVC055 17 16 94% 75.9 0.0
03 19:55 W 7 16.09 Overcast SCT030 BKN037 OVC050 17 16 94% 75.87 0.0
03 19:35 Calm 16.09 Overcast SCT029 BKN034 OVC039 17 15 88% 75.87 0.0
03 19:15 Calm 16.09 Overcast SCT027 OVC033 17 16 94% 75.9 0.0
03 18:55 NW 7 16.09 Overcast BKN024 OVC029 17 16 94% 75.92 0.0
03 18:35 N 7 12.87 Light Drizzle OVC020 17 16 94% 75.92 0.0
03 18:15 NW 13 16.09 Overcast OVC019 17 16 94% 75.92 0.0
03 17:55 N 15 11.27 Light Drizzle SCT014 BKN021 BKN029 17 17 100% 75.92 0.0 0.05
03 17:35 N 15 3.22 Light Drizzle SCT013 BKN020 17 17 100% 75.92 0.0
03 17:15 N 17 4.83 Light Drizzle FEW013 BKN018 BKN023 18 17 94% 75.92 0.0
03 16:55 N 11 4.83 Light Drizzle SCT014 SCT021 BKN026 18 17 94% 75.95 0.0 0.03
03 16:35 N 13 14.48 Light Drizzle FEW017 SCT022 BKN027 19 17 88% 75.95 0.0
03 16:15 W 9 14.48 Overcast FEW022 BKN030 OVC036 19 17 88% 75.95 0.0
03 15:55 SW 9 9.66 Light Drizzle FEW017 SCT022 SCT029 19 18 94% 75.97 0.0
03 15:35 SW 9 4.02 Light Drizzle SCT020 19 18 94% 75.97 0.0
03 15:15 SW 11 2.82 Light Drizzle OVC018 19 18 94% 76 0.0
03 14:55 Vrbl 9 12.87 Light Drizzle BKN018 OVC023 20 18 88% 76 0.0
03 14:35 W 13 14.48 Overcast BKN021 OVC026 20 17 83% 76 0.0
03 14:15 SW 15 14.48 Light Drizzle FEW015 BKN021 OVC028 19 17 88% 76 0.0
03 13:55 SW 9 G 19 16.09 Overcast SCT016 BKN021 OVC027 20 18 88% 76 0.0
03 13:35 SW 13 16.09 Overcast BKN020 OVC027 19 17 88% 76.02 0.0
03 13:15 W 11 G 22 8.05 Light Drizzle BKN018 BKN025 BKN036 19 17 88% 76.02 0.0
03 12:55 SW 9 16.09 Mostly Cloudy BKN017 BKN022 BKN029 19 18 94% 76.02 0.0 0.03
03 12:35 SW 11 G 22 2.01 Light Drizzle BKN019 BKN026 19 17 88% 76.05 0.0
03 12:15 SW 20 4.83 Light Drizzle BKN018 OVC024 20 17 83% 76.07 0.0
03 11:55 S 15 16.09 Overcast OVC018 20 16 78% 76.07 0.0
03 11:35 SW 17 16.09 Overcast OVC018 20 16 78% 76.07 0.0
03 11:15 S 17 16.09 Overcast OVC017 20 16 78% 76.07 0.0
03 10:55 S 19 16.09 Overcast OVC018 20 16 78% 76.07 0.0
03 10:35 S 20 16.09 Overcast OVC018 20 16 78% 76.07 0.0
03 10:15 SE 13 16.09 Overcast BKN017 OVC022 19 16 83% 76.07 0.0
03 09:55 SE 17 14.48 Overcast BKN017 OVC022 19 16 83% 76.07 0.0
03 09:35 S 15 G 26 16.09 Overcast OVC017 19 16 83% 76.1 0.0
03 09:15 S 17 16.09 Overcast OVC017 18 16 88% 76.1 0.0
03 08:55 S 13 16.09 Overcast BKN015 OVC021 18 16 88% 76.1 0.0
03 08:35 SE 7 16.09 Overcast OVC012 18 16 88% 76.1 0.0
03 08:15 SE 7 16.09 Overcast OVC012 18 16 88% 76.12 0.0
03 07:55 SE 6 16.09 Overcast OVC015 18 16 88% 76.1 0.0
03 07:35 S 9 16.09 Overcast OVC018 17 15 88% 76.1 0.0
03 07:15 S 7 16.09 Overcast SCT019 OVC030 17 15 88% 76.07 0.0
03 06:55 S 7 16.09 Overcast OVC034 17 15 88% 76.07 0.0
03 06:35 S 9 16.09 Overcast OVC038 16 15 94% 76.07 0.0
03 06:15 S 7 16.09 Overcast OVC040 16 14 88% 76.07 0.0
03 05:55 S 6 16.09 Overcast OVC039 16 15 94% 76.1 0.0
03 05:35 Calm 16.09 Overcast OVC040 16 15 94% 76.1 0.0
03 05:15 Calm 16.09 Overcast OVC040 16 14 88% 76.1 0.0
03 04:55 Calm 16.09 Overcast OVC042 16 14 88% 76.12 0.0
03 04:35 Calm 16.09 Overcast OVC043 16 14 88% 76.12 0.0
03 04:15 Calm 16.09 Mostly Cloudy BKN033 BKN043 16 14 88% 76.15 0.0
03 03:55 Calm 16.09 Overcast SCT016 SCT021 OVC032 16 15 94% 76.15 0.0
03 03:35 Calm 16.09 Overcast BKN017 BKN022 OVC030 16 15 94% 76.17 0.0
03 03:15 S 7 16.09 Overcast FEW016 SCT022 OVC029 16 15 94% 76.17 0.0
03 02:55 Calm 16.09 Overcast SCT016 OVC028 16 15 94% 76.17 0.0
03 02:35 SE 7 16.09 Overcast FEW014 OVC027 16 15 94% 76.17 0.0
03 02:15 S 6 16.09 Overcast BKN016 BKN021 OVC026 16 14 88% 76.2 0.0
03 01:55 Calm 16.09 Overcast BKN017 OVC025 15 14 94% 76.23 0.0
03 01:35 Calm 16.09 Mostly Cloudy BKN017 15 14 94% 76.2 0.0
03 01:15 Calm 16.09 A Few Clouds FEW019 FEW026 15 14 94% 76.2 0.0
03 00:55 NW 6 16.09 Fair CLR 15 14 94% 76.2 0.0
03 00:35 NW 11 16.09 Fair CLR 15 14 94% 76.2 0.0
03 00:15 NW 6 16.09 A Few Clouds FEW018 15 14 94% 76.2 0.0
02 23:55 Vrbl 6 16.09 Partly Cloudy SCT018 16 14 88% 76.23 0.0
02 23:35 W 9 G 19 16.09 Partly Cloudy SCT019 16 14 88% 76.23 0.0
02 23:15 Vrbl 6 16.09 Partly Cloudy SCT019 16 14 88% 76.25 0.0
02 22:55 Calm 16.09 Partly Cloudy SCT020 16 14 88% 76.25 0.0
02 22:35 Calm 16.09 A Few Clouds FEW020 16 14 88% 76.25 0.0
02 22:15 Vrbl 6 16.09 A Few Clouds FEW021 17 14 83% 76.25 0.0
02 21:55 NW 9 16.09 A Few Clouds FEW020 17 15 88% 76.25 0.0
02 21:35 NW 11 16.09 Fair CLR 17 14 83% 76.25 0.0
02 21:15 Vrbl 11 16.09 Fair CLR 17 14 83% 76.25 0.0
02 20:55 NW 7 16.09 A Few Clouds FEW023 17 14 83% 76.23 0.0
02 20:35 SW 7 16.09 A Few Clouds FEW023 18 14 78% 76.2 0.0
02 20:15 Calm 16.09 A Few Clouds FEW024 18 14 78% 76.2 0.0
02 19:55 SW 9 G 19 16.09 A Few Clouds FEW025 18 14 78% 76.17 0.0
02 19:35 S 7 16.09 Fair CLR 19 14 73% 76.2 0.0
02 19:15 Vrbl 6 16.09 Fair CLR 19 13 68% 76.2 0.0
02 18:55 S 13 16.09 Fair CLR 20 13 64% 76.2 0.0
02 18:35 Calm 16.09 Fair CLR 21 13 60% 76.2 0.0
02 18:15 W 22 16.09 Fair CLR 21 13 60% 76.2 0.0
02 17:55 SW 20 16.09 Fair CLR 22 13 57% 76.2 0.0
02 17:35 W 20 16.09 Fair CLR 23 13 53% 76.2 0.0
02 17:15 W 22 16.09 Fair CLR 23 13 53% 76.2 0.0
02 16:55 SW 20 16.09 A Few Clouds FEW040 23 13 53% 76.2 0.0
02 16:35 W 17 G 31 16.09 A Few Clouds FEW040 24 13 50% 25 76.23 0.0
02 16:15 W 20 G 31 16.09 A Few Clouds FEW044 24 13 50% 25 76.23 0.0
02 15:55 SW 20 G 30 16.09 A Few Clouds FEW045 24 12 47% 25 76.23 0.0
02 15:35 SW 20 16.09 A Few Clouds FEW046 25 12 44% 26 76.23 0.0
02 15:15 SW 17 G 26 16.09 A Few Clouds FEW046 25 12 44% 26 76.25 0.0
02 14:55 SW 19 16.09 A Few Clouds FEW045 24 12 47% 25 76.25 0.0
02 14:35 SW 17 16.09 Fair CLR 24 13 50% 25 76.28 0.0
02 14:15 SW 19 G 33 16.09 Fair CLR 23 13 53% 76.25 0.0
02 13:55 W 20 16.09 A Few Clouds FEW044 23 14 57% 76.28 0.0
02 13:35 SW 17 16.09 Fair CLR 23 14 57% 76.28 0.0
02 13:15 SW 17 16.09 A Few Clouds FEW034 23 14 57% 76.3 0.0
02 12:55 SW 17 16.09 Fair CLR 22 14 61% 76.3 0.0
02 12:35 SW 17 16.09 A Few Clouds FEW030 FEW036 22 15 65% 76.33 0.0
02 12:15 SW 17 16.09 Mostly Cloudy FEW024 SCT029 BKN036 21 15 69% 76.33 0.0
02 11:55 SW 13 16.09 Mostly Cloudy SCT025 SCT033 BKN050 20 17 83% 76.33 0.0
02 11:35 SW 20 9.66 Light Drizzle BKN020 BKN026 OVC034 19 16 83% 76.35 0.0
02 11:15 S 17 16.09 Overcast BKN018 BKN023 OVC050 20 16 78% 76.33 0.0
02 10:55 S 11 16.09 Overcast BKN016 BKN022 OVC046 20 16 78% 76.33 0.0
02 10:35 SE 9 12.87 Light Drizzle BKN016 BKN026 BKN046 19 16 83% 76.3 0.0
02 10:15 E 6 16.09 Overcast BKN016 OVC022 19 16 83% 76.3 0.0
02 09:55 Calm 16.09 Overcast FEW016 BKN022 OVC050 19 16 83% 76.28 0.0
02 09:35 Calm 11.27 Mostly Cloudy FEW008 SCT015 BKN022 18 17 94% 76.28 0.0
02 09:15 S 9 11.27 Light Drizzle FEW009 FEW013 BKN021 17 16 94% 76.28 0.0
02 08:55 S 9 6.44 Light Drizzle FEW019 SCT024 SCT031 17 16 94% 76.28 0.0
02 08:35 S 11 6.44 Light Drizzle BKN018 BKN024 BKN031 18 16 88% 76.28 0.0
02 08:15 SE 9 16.09 Overcast BKN022 OVC026 17 15 88% 76.28 0.0
02 07:55 SE 11 14.48 Overcast BKN024 OVC031 17 15 88% 76.25 0.0
02 07:35 S 13 16.09 Overcast SCT023 BKN029 OVC034 17 15 88% 76.23 0.0
02 07:15 S 9 16.09 Overcast BKN025 BKN037 OVC065 17 14 83% 76.2 0.0
02 06:55 Vrbl 7 G 19 16.09 Mostly Cloudy FEW022 SCT038 BKN060 17 15 88% 76.2 0.0
02 06:35 S 9 16.09 Overcast SCT022 BKN039 OVC070 16 15 94% 76.2 0.0
02 06:15 Calm 16.09 Overcast FEW025 BKN036 OVC042 16 14 88% 76.2 0.0
Date Time (pdt) Wind (kph) Vis. (km) Weather Sky Cond. Air Dwpt Max. Min. Relative Humidity Wind Chill (°C) Heat Index (°C) altimeter (cm) sea level (mb) 1 hr 3 hr 6 hr
6 hour
Temperature (ºC) Pressure Precipitation (cm)